KHQZ

Mesquite Metro Airport

Mesquite, Texas, USA
METAR KHQZ 212050Z 35003KT 10SM CLR 19/03 A3026
Observed Flight Rules
Oct-21 @ 20:50 UTC (55 minutes ago) Visual Flight Rules
Wind Visibility Clouds
350° at 3 knots 10 miles
  • Clear skies
Temperatures Readings
Current 19°C / 66°F
Dewpoint 3°C / 37°F
Humidity 35%
Altimeter 30.26" Hg
Pressure 1025 hPa
Elevation 136
METAR KHQZ 212050Z 35003KT 10SM CLR 19/03 A3026
Observed Flight Rules
Oct-21 @ 20:50 UTC
(55 minutes ago)
VFR
Wind Visibility
350° at 3 knots 10 miles
Clouds
  • Clear skies
Temperature Dewpoint
19°C / 66°F 3°C / 37°F
Humidity Altimeter Pressure
35% 30.26" Hg 1025 hPa